sensor_id;sensor_type;location;lat;lon;timestamp;pressure;altitude;pressure_sealevel;temperature;humidity
60319;BME280;46163;52.306;5.634;2023-06-14T00:01:22;101448.34;;;15.98;53.58
60319;BME280;46163;52.306;5.634;2023-06-14T00:03:47;101456.84;;;15.95;53.30
60319;BME280;46163;52.306;5.634;2023-06-14T00:06:14;101457.13;;;15.87;54.05
60319;BME280;46163;52.306;5.634;2023-06-14T00:08:40;101439.94;;;15.70;53.44
60319;BME280;46163;52.306;5.634;2023-06-14T00:11:06;101455.13;;;15.82;52.43
60319;BME280;46163;52.306;5.634;2023-06-14T00:13:32;101453.03;;;15.85;53.73
60319;BME280;46163;52.306;5.634;2023-06-14T00:15:58;101455.53;;;16.23;53.28
60319;BME280;46163;52.306;5.634;2023-06-14T00:18:24;101459.50;;;16.20;53.80
60319;BME280;46163;52.306;5.634;2023-06-14T00:20:50;101460.47;;;16.26;53.62
60319;BME280;46163;52.306;5.634;2023-06-14T00:23:17;101457.63;;;16.21;53.31
60319;BME280;46163;52.306;5.634;2023-06-14T00:25:42;101454.66;;;16.29;53.38
60319;BME280;46163;52.306;5.634;2023-06-14T00:28:08;101451.91;;;16.17;52.60
60319;BME280;46163;52.306;5.634;2023-06-14T00:30:33;101454.59;;;16.17;52.61
60319;BME280;46163;52.306;5.634;2023-06-14T00:33:01;101452.31;;;16.32;52.03
60319;BME280;46163;52.306;5.634;2023-06-14T00:35:26;101458.84;;;16.25;50.95
60319;BME280;46163;52.306;5.634;2023-06-14T00:37:52;101457.09;;;16.30;50.14
60319;BME280;46163;52.306;5.634;2023-06-14T00:40:20;101453.97;;;16.15;50.79
60319;BME280;46163;52.306;5.634;2023-06-14T00:42:46;101459.09;;;15.98;52.02
60319;BME280;46163;52.306;5.634;2023-06-14T00:45:12;101452.00;;;15.86;52.50
60319;BME280;46163;52.306;5.634;2023-06-14T00:47:38;101460.69;;;15.81;51.73
60319;BME280;46163;52.306;5.634;2023-06-14T00:50:06;101454.78;;;15.72;52.79
60319;BME280;46163;52.306;5.634;2023-06-14T00:52:32;101462.69;;;15.67;52.90
60319;BME280;46163;52.306;5.634;2023-06-14T00:54:58;101459.41;;;15.65;52.94
60319;BME280;46163;52.306;5.634;2023-06-14T00:57:24;101463.97;;;15.58;52.46
60319;BME280;46163;52.306;5.634;2023-06-14T00:59:49;101453.94;;;15.47;54.07
60319;BME280;46163;52.306;5.634;2023-06-14T01:02:18;101446.31;;;15.44;52.94
60319;BME280;46163;52.306;5.634;2023-06-14T01:04:44;101458.84;;;15.50;52.28
60319;BME280;46163;52.306;5.634;2023-06-14T01:13:42;101457.63;;;15.77;53.67
60319;BME280;46163;52.306;5.634;2023-06-14T01:16:09;101461.91;;;15.85;51.37
60319;BME280;46163;52.306;5.634;2023-06-14T01:18:36;101460.91;;;15.79;51.58
60319;BME280;46163;52.306;5.634;2023-06-14T01:21:02;101460.56;;;15.94;52.20
60319;BME280;46163;52.306;5.634;2023-06-14T01:23:31;101462.00;;;15.97;52.05
60319;BME280;46163;52.306;5.634;2023-06-14T01:25:59;101466.44;;;15.85;51.04
60319;BME280;46163;52.306;5.634;2023-06-14T01:28:26;101462.63;;;15.99;51.65
60319;BME280;46163;52.306;5.634;2023-06-14T01:30:59;101457.81;;;15.82;49.90
60319;BME280;46163;52.306;5.634;2023-06-14T01:33:27;101455.84;;;15.90;51.38
60319;BME280;46163;52.306;5.634;2023-06-14T01:35:53;101454.25;;;15.64;50.37
60319;BME280;46163;52.306;5.634;2023-06-14T01:38:24;101460.22;;;15.59;51.74
60319;BME280;46163;52.306;5.634;2023-06-14T01:40:53;101471.03;;;15.46;51.66
60319;BME280;46163;52.306;5.634;2023-06-14T01:43:20;101464.31;;;15.37;52.18
60319;BME280;46163;52.306;5.634;2023-06-14T01:45:47;101463.38;;;15.24;52.39
60319;BME280;46163;52.306;5.634;2023-06-14T01:48:14;101469.16;;;15.21;53.24
60319;BME280;46163;52.306;5.634;2023-06-14T01:50:40;101466.75;;;15.13;53.43
60319;BME280;46163;52.306;5.634;2023-06-14T01:53:10;101465.13;;;15.06;53.79
60319;BME280;46163;52.306;5.634;2023-06-14T01:55:36;101463.53;;;14.98;54.35
60319;BME280;46163;52.306;5.634;2023-06-14T01:58:03;101453.66;;;14.85;54.04
60319;BME280;46163;52.306;5.634;2023-06-14T02:00:29;101452.25;;;14.83;54.21
60319;BME280;46163;52.306;5.634;2023-06-14T02:02:54;101464.81;;;14.82;53.81
60319;BME280;46163;52.306;5.634;2023-06-14T02:05:21;101465.25;;;14.79;54.24
60319;BME280;46163;52.306;5.634;2023-06-14T02:07:46;101468.56;;;14.75;54.53
60319;BME280;46163;52.306;5.634;2023-06-14T02:10:12;101465.09;;;14.67;53.87
60319;BME280;46163;52.306;5.634;2023-06-14T02:12:38;101453.78;;;14.65;54.29
60319;BME280;46163;52.306;5.634;2023-06-14T02:15:04;101453.16;;;14.63;54.95
60319;BME280;46163;52.306;5.634;2023-06-14T02:17:31;101460.56;;;14.68;55.34
60319;BME280;46163;52.306;5.634;2023-06-14T02:19:56;101466.13;;;14.66;55.17
60319;BME280;46163;52.306;5.634;2023-06-14T02:22:23;101452.19;;;14.51;55.80
60319;BME280;46163;52.306;5.634;2023-06-14T02:24:49;101467.84;;;14.48;55.69
60319;BME280;46163;52.306;5.634;2023-06-14T02:27:15;101459.59;;;14.42;55.77
60319;BME280;46163;52.306;5.634;2023-06-14T02:29:40;101462.91;;;14.38;55.93
60319;BME280;46163;52.306;5.634;2023-06-14T02:32:09;101449.34;;;14.20;55.66
60319;BME280;46163;52.306;5.634;2023-06-14T02:34:35;101464.59;;;14.26;55.89
60319;BME280;46163;52.306;5.634;2023-06-14T02:37:06;101465.84;;;14.17;56.29
60319;BME280;46163;52.306;5.634;2023-06-14T02:39:31;101465.63;;;14.18;56.31
60319;BME280;46163;52.306;5.634;2023-06-14T02:41:57;101471.00;;;14.11;56.40
60319;BME280;46163;52.306;5.634;2023-06-14T02:44:25;101475.75;;;14.03;56.88
60319;BME280;46163;52.306;5.634;2023-06-14T02:46:54;101471.25;;;13.90;56.73
60319;BME280;46163;52.306;5.634;2023-06-14T02:49:21;101473.50;;;13.86;56.76
60319;BME280;46163;52.306;5.634;2023-06-14T02:51:47;101470.81;;;13.80;57.14
60319;BME280;46163;52.306;5.634;2023-06-14T02:54:14;101477.81;;;13.74;56.85
60319;BME280;46163;52.306;5.634;2023-06-14T02:56:40;101459.72;;;13.56;57.46
60319;BME280;46163;52.306;5.634;2023-06-14T02:59:08;101478.25;;;13.65;57.79
60319;BME280;46163;52.306;5.634;2023-06-14T03:01:34;101479.66;;;13.61;57.30
60319;BME280;46163;52.306;5.634;2023-06-14T03:04:07;101478.81;;;13.53;57.66
60319;BME280;46163;52.306;5.634;2023-06-14T03:06:32;101485.41;;;13.51;57.40
60319;BME280;46163;52.306;5.634;2023-06-14T03:08:59;101465.25;;;13.42;57.77
60319;BME280;46163;52.306;5.634;2023-06-14T03:11:26;101484.78;;;13.42;57.56
60319;BME280;46163;52.306;5.634;2023-06-14T03:13:52;101487.66;;;13.34;58.01
60319;BME280;46163;52.306;5.634;2023-06-14T03:16:18;101485.81;;;13.41;58.12
60319;BME280;46163;52.306;5.634;2023-06-14T03:18:50;101489.50;;;13.34;57.55
60319;BME280;46163;52.306;5.634;2023-06-14T03:21:15;101488.06;;;13.31;57.85
60319;BME280;46163;52.306;5.634;2023-06-14T03:23:42;101481.47;;;13.27;57.77
60319;BME280;46163;52.306;5.634;2023-06-14T03:26:09;101482.69;;;13.24;58.02
60319;BME280;46163;52.306;5.634;2023-06-14T03:28:38;101496.88;;;13.25;58.18
60319;BME280;46163;52.306;5.634;2023-06-14T03:31:03;101498.31;;;13.21;58.39
60319;BME280;46163;52.306;5.634;2023-06-14T03:33:29;101486.78;;;13.20;58.43
60319;BME280;46163;52.306;5.634;2023-06-14T03:35:56;101504.31;;;13.29;58.68
60319;BME280;46163;52.306;5.634;2023-06-14T03:38:22;101509.84;;;13.28;58.36
60319;BME280;46163;52.306;5.634;2023-06-14T03:40:50;101511.88;;;13.26;58.06
60319;BME280;46163;52.306;5.634;2023-06-14T03:43:16;101499.09;;;13.15;58.31
60319;BME280;46163;52.306;5.634;2023-06-14T03:45:41;101517.59;;;13.16;59.21
60319;BME280;46163;52.306;5.634;2023-06-14T03:48:08;101511.63;;;13.14;59.01
60319;BME280;46163;52.306;5.634;2023-06-14T03:50:34;101504.00;;;13.05;58.58
60319;BME280;46163;52.306;5.634;2023-06-14T03:53:00;101513.03;;;13.10;58.90
60319;BME280;46163;52.306;5.634;2023-06-14T03:55:28;101509.72;;;13.01;59.57
60319;BME280;46163;52.306;5.634;2023-06-14T03:57:56;101513.44;;;13.07;58.73
60319;BME280;46163;52.306;5.634;2023-06-14T04:00:22;101513.88;;;13.04;58.96
60319;BME280;46163;52.306;5.634;2023-06-14T04:02:48;101514.44;;;12.99;59.19
60319;BME280;46163;52.306;5.634;2023-06-14T04:05:14;101517.94;;;13.00;59.17
60319;BME280;46163;52.306;5.634;2023-06-14T04:07:42;101525.13;;;12.99;59.13
60319;BME280;46163;52.306;5.634;2023-06-14T04:10:11;101532.13;;;13.00;59.32
60319;BME280;46163;52.306;5.634;2023-06-14T04:12:37;101527.59;;;13.01;59.51
60319;BME280;46163;52.306;5.634;2023-06-14T04:15:03;101533.38;;;13.11;59.11
60319;BME280;46163;52.306;5.634;2023-06-14T04:17:31;101535.66;;;13.08;59.64
60319;BME280;46163;52.306;5.634;2023-06-14T04:19:58;101527.03;;;13.06;59.48
60319;BME280;46163;52.306;5.634;2023-06-14T04:22:25;101539.75;;;13.10;59.17
60319;BME280;46163;52.306;5.634;2023-06-14T04:24:54;101552.53;;;13.15;59.53
60319;BME280;46163;52.306;5.634;2023-06-14T04:27:21;101543.75;;;13.21;60.06
60319;BME280;46163;52.306;5.634;2023-06-14T04:29:51;101545.41;;;13.22;59.91
60319;BME280;46163;52.306;5.634;2023-06-14T04:32:25;101549.09;;;13.21;59.78
60319;BME280;46163;52.306;5.634;2023-06-14T04:34:54;101540.69;;;13.24;58.88
60319;BME280;46163;52.306;5.634;2023-06-14T04:37:21;101538.22;;;13.29;59.61
60319;BME280;46163;52.306;5.634;2023-06-14T04:39:47;101542.97;;;13.34;59.57
60319;BME280;46163;52.306;5.634;2023-06-14T04:42:12;101549.97;;;13.41;59.73
60319;BME280;46163;52.306;5.634;2023-06-14T04:44:43;101556.78;;;13.50;58.74
60319;BME280;46163;52.306;5.634;2023-06-14T04:47:09;101551.66;;;13.55;59.53
60319;BME280;46163;52.306;5.634;2023-06-14T04:49:35;101565.66;;;13.57;58.77
60319;BME280;46163;52.306;5.634;2023-06-14T04:52:01;101550.66;;;13.70;58.32
60319;BME280;46163;52.306;5.634;2023-06-14T04:54:27;101563.84;;;13.84;58.12
60319;BME280;46163;52.306;5.634;2023-06-14T04:56:53;101559.09;;;13.86;57.78
60319;BME280;46163;52.306;5.634;2023-06-14T04:59:20;101560.56;;;14.02;57.03
60319;BME280;46163;52.306;5.634;2023-06-14T05:01:51;101558.47;;;14.24;56.76
60319;BME280;46163;52.306;5.634;2023-06-14T05:04:17;101565.91;;;14.29;57.17
60319;BME280;46163;52.306;5.634;2023-06-14T05:06:44;101552.72;;;14.27;56.36
60319;BME280;46163;52.306;5.634;2023-06-14T05:09:15;101568.38;;;14.43;55.99
60319;BME280;46163;52.306;5.634;2023-06-14T05:11:42;101554.97;;;14.50;56.23
60319;BME280;46163;52.306;5.634;2023-06-14T05:14:10;101565.47;;;14.72;55.44
60319;BME280;46163;52.306;5.634;2023-06-14T05:16:35;101568.50;;;14.88;55.30
60319;BME280;46163;52.306;5.634;2023-06-14T05:19:02;101558.13;;;15.05;54.75
60319;BME280;46163;52.306;5.634;2023-06-14T05:21:28;101564.94;;;15.01;55.09
60319;BME280;46163;52.306;5.634;2023-06-14T05:23:53;101566.59;;;15.02;54.76
60319;BME280;46163;52.306;5.634;2023-06-14T05:26:23;101567.97;;;15.11;54.74
60319;BME280;46163;52.306;5.634;2023-06-14T05:28:56;101570.66;;;15.18;54.30
60319;BME280;46163;52.306;5.634;2023-06-14T05:31:22;101561.94;;;15.29;53.87
60319;BME280;46163;52.306;5.634;2023-06-14T05:33:49;101570.94;;;15.41;53.73
60319;BME280;46163;52.306;5.634;2023-06-14T05:36:14;101572.97;;;15.46;53.84
60319;BME280;46163;52.306;5.634;2023-06-14T05:38:40;101579.53;;;15.57;53.74
60319;BME280;46163;52.306;5.634;2023-06-14T05:41:06;101566.94;;;15.64;53.09
60319;BME280;46163;52.306;5.634;2023-06-14T05:43:31;101570.31;;;15.84;52.25
60319;BME280;46163;52.306;5.634;2023-06-14T05:45:57;101579.69;;;16.00;52.22
60319;BME280;46163;52.306;5.634;2023-06-14T05:48:22;101574.25;;;16.06;52.01
60319;BME280;46163;52.306;5.634;2023-06-14T05:50:48;101585.81;;;16.07;51.59
60319;BME280;46163;52.306;5.634;2023-06-14T05:53:13;101592.13;;;16.19;51.00
60319;BME280;46163;52.306;5.634;2023-06-14T05:55:39;101586.81;;;16.37;50.71
60319;BME280;46163;52.306;5.634;2023-06-14T05:58:04;101591.94;;;16.64;50.48
60319;BME280;46163;52.306;5.634;2023-06-14T06:00:31;101601.50;;;16.60;50.96
60319;BME280;46163;52.306;5.634;2023-06-14T06:02:58;101598.47;;;16.75;49.77
60319;BME280;46163;52.306;5.634;2023-06-14T06:05:24;101594.34;;;16.72;52.05
60319;BME280;46163;52.306;5.634;2023-06-14T06:07:50;101609.06;;;16.70;51.46
60319;BME280;46163;52.306;5.634;2023-06-14T06:10:16;101595.81;;;16.68;52.20
60319;BME280;46163;52.306;5.634;2023-06-14T06:12:42;101600.84;;;16.39;57.30
60319;BME280;46163;52.306;5.634;2023-06-14T06:15:08;101618.31;;;15.67;64.47
60319;BME280;46163;52.306;5.634;2023-06-14T06:17:37;101623.44;;;15.17;64.00
60319;BME280;46163;52.306;5.634;2023-06-14T06:20:04;101617.34;;;14.90;65.31
60319;BME280;46163;52.306;5.634;2023-06-14T06:22:31;101626.66;;;14.81;66.93
60319;BME280;46163;52.306;5.634;2023-06-14T06:24:56;101619.00;;;14.85;63.31
60319;BME280;46163;52.306;5.634;2023-06-14T06:27:22;101620.63;;;14.92;62.14
60319;BME280;46163;52.306;5.634;2023-06-14T06:29:50;101621.44;;;14.99;65.16
60319;BME280;46163;52.306;5.634;2023-06-14T06:32:17;101621.59;;;15.11;60.35
60319;BME280;46163;52.306;5.634;2023-06-14T06:34:42;101621.13;;;15.27;62.56
60319;BME280;46163;52.306;5.634;2023-06-14T06:37:10;101614.69;;;15.42;63.53
60319;BME280;46163;52.306;5.634;2023-06-14T06:39:36;101618.38;;;15.47;62.75
60319;BME280;46163;52.306;5.634;2023-06-14T06:42:01;101620.38;;;15.65;60.30
60319;BME280;46163;52.306;5.634;2023-06-14T06:44:30;101621.13;;;15.79;59.81
60319;BME280;46163;52.306;5.634;2023-06-14T06:46:57;101621.28;;;15.91;57.73
60319;BME280;46163;52.306;5.634;2023-06-14T06:49:22;101634.78;;;16.34;61.39
60319;BME280;46163;52.306;5.634;2023-06-14T06:52:04;101634.47;;;16.67;55.79
60319;BME280;46163;52.306;5.634;2023-06-14T06:54:31;101628.41;;;16.78;56.86
60319;BME280;46163;52.306;5.634;2023-06-14T06:56:56;101629.91;;;16.92;56.09
60319;BME280;46163;52.306;5.634;2023-06-14T06:59:22;101638.66;;;17.06;58.32
60319;BME280;46163;52.306;5.634;2023-06-14T07:01:48;101646.38;;;17.21;56.25
60319;BME280;46163;52.306;5.634;2023-06-14T07:04:14;101643.59;;;17.76;55.76
60319;BME280;46163;52.306;5.634;2023-06-14T07:06:42;101636.81;;;20.06;53.05
60319;BME280;46163;52.306;5.634;2023-06-14T07:09:10;101632.28;;;22.15;52.33
60319;BME280;46163;52.306;5.634;2023-06-14T07:11:42;101640.69;;;23.56;47.35
60319;BME280;46163;52.306;5.634;2023-06-14T07:14:07;101637.88;;;25.24;44.70
60319;BME280;46163;52.306;5.634;2023-06-14T07:16:33;101636.16;;;26.21;35.09
60319;BME280;46163;52.306;5.634;2023-06-14T07:18:59;101625.38;;;26.93;43.82
60319;BME280;46163;52.306;5.634;2023-06-14T07:21:25;101629.22;;;27.54;32.87
60319;BME280;46163;52.306;5.634;2023-06-14T07:23:54;101640.22;;;28.05;35.22
60319;BME280;46163;52.306;5.634;2023-06-14T07:26:22;101630.09;;;29.35;30.33
60319;BME280;46163;52.306;5.634;2023-06-14T07:28:48;101634.31;;;28.77;28.78
60319;BME280;46163;52.306;5.634;2023-06-14T07:31:15;101637.81;;;27.85;29.08
60319;BME280;46163;52.306;5.634;2023-06-14T07:33:41;101650.84;;;28.72;33.46
60319;BME280;46163;52.306;5.634;2023-06-14T07:36:07;101637.78;;;29.60;30.25
60319;BME280;46163;52.306;5.634;2023-06-14T07:38:33;101640.44;;;30.63;25.48
60319;BME280;46163;52.306;5.634;2023-06-14T07:40:59;101642.78;;;31.53;25.16
60319;BME280;46163;52.306;5.634;2023-06-14T07:43:25;101639.88;;;31.32;24.08
60319;BME280;46163;52.306;5.634;2023-06-14T07:45:50;101637.00;;;31.55;24.84
60319;BME280;46163;52.306;5.634;2023-06-14T07:48:16;101655.75;;;30.25;23.70
60319;BME280;46163;52.306;5.634;2023-06-14T07:50:42;101638.44;;;30.86;25.69
60319;BME280;46163;52.306;5.634;2023-06-14T07:53:08;101637.13;;;32.10;25.88
60319;BME280;46163;52.306;5.634;2023-06-14T07:55:33;101650.91;;;33.75;31.27
60319;BME280;46163;52.306;5.634;2023-06-14T07:58:05;101637.38;;;32.81;24.44
60319;BME280;46163;52.306;5.634;2023-06-14T08:00:31;101640.94;;;33.83;23.43
60319;BME280;46163;52.306;5.634;2023-06-14T08:02:57;101646.22;;;33.55;21.87
60319;BME280;46163;52.306;5.634;2023-06-14T08:05:24;101655.84;;;34.23;21.87
60319;BME280;46163;52.306;5.634;2023-06-14T08:07:50;101653.28;;;34.51;18.83
60319;BME280;46163;52.306;5.634;2023-06-14T08:10:16;101637.47;;;34.40;19.69
60319;BME280;46163;52.306;5.634;2023-06-14T08:12:41;101653.03;;;35.18;20.90
60319;BME280;46163;52.306;5.634;2023-06-14T08:15:07;101640.50;;;35.08;17.51
60319;BME280;46163;52.306;5.634;2023-06-14T08:17:33;101646.19;;;33.96;18.06
60319;BME280;46163;52.306;5.634;2023-06-14T08:20:00;101651.53;;;33.81;18.57
60319;BME280;46163;52.306;5.634;2023-06-14T08:22:26;101652.50;;;33.13;18.46
60319;BME280;46163;52.306;5.634;2023-06-14T08:24:53;101641.31;;;35.61;18.08
60319;BME280;46163;52.306;5.634;2023-06-14T08:27:20;101644.09;;;36.96;16.73
60319;BME280;46163;52.306;5.634;2023-06-14T08:29:46;101652.88;;;37.33;16.06
60319;BME280;46163;52.306;5.634;2023-06-14T08:32:12;101650.78;;;33.92;17.82
60319;BME280;46163;52.306;5.634;2023-06-14T08:34:37;101647.50;;;35.18;17.63
60319;BME280;46163;52.306;5.634;2023-06-14T08:37:05;101647.66;;;34.84;16.57
60319;BME280;46163;52.306;5.634;2023-06-14T08:39:31;101649.19;;;34.37;17.85
60319;BME280;46163;52.306;5.634;2023-06-14T08:41:58;101644.13;;;35.49;16.78
60319;BME280;46163;52.306;5.634;2023-06-14T08:44:24;101654.81;;;35.62;16.19
60319;BME280;46163;52.306;5.634;2023-06-14T08:46:50;101654.47;;;35.64;17.17
60319;BME280;46163;52.306;5.634;2023-06-14T08:49:17;101645.47;;;36.86;16.41
60319;BME280;46163;52.306;5.634;2023-06-14T08:51:43;101648.03;;;37.11;16.36
60319;BME280;46163;52.306;5.634;2023-06-14T08:54:11;101648.69;;;37.97;14.75
60319;BME280;46163;52.306;5.634;2023-06-14T08:56:40;101648.34;;;36.58;15.55
60319;BME280;46163;52.306;5.634;2023-06-14T08:59:07;101653.41;;;37.58;14.43
60319;BME280;46163;52.306;5.634;2023-06-14T09:01:34;101645.06;;;35.81;15.27
60319;BME280;46163;52.306;5.634;2023-06-14T09:04:00;101650.69;;;35.84;16.01
60319;BME280;46163;52.306;5.634;2023-06-14T09:06:27;101651.53;;;35.73;16.21
60319;BME280;46163;52.306;5.634;2023-06-14T09:08:54;101649.34;;;36.22;15.66
60319;BME280;46163;52.306;5.634;2023-06-14T09:11:21;101649.91;;;36.75;15.32
60319;BME280;46163;52.306;5.634;2023-06-14T09:13:48;101653.69;;;36.67;14.88
60319;BME280;46163;52.306;5.634;2023-06-14T09:16:14;101663.09;;;33.95;17.12
60319;BME280;46163;52.306;5.634;2023-06-14T09:18:42;101659.84;;;35.20;16.56
60319;BME280;46163;52.306;5.634;2023-06-14T09:21:10;101650.44;;;36.33;16.23
60319;BME280;46163;52.306;5.634;2023-06-14T09:23:47;101653.88;;;36.42;16.35
60319;BME280;46163;52.306;5.634;2023-06-14T09:26:14;101663.59;;;35.92;16.09
60319;BME280;46163;52.306;5.634;2023-06-14T09:28:47;101659.69;;;33.98;18.67
60319;BME280;46163;52.306;5.634;2023-06-14T09:31:15;101667.34;;;33.92;17.47
60319;BME280;46163;52.306;5.634;2023-06-14T09:33:48;101658.56;;;33.28;18.07
60319;BME280;46163;52.306;5.634;2023-06-14T09:36:24;101657.25;;;35.52;16.50
60319;BME280;46163;52.306;5.634;2023-06-14T09:39:01;101659.97;;;34.29;17.60
60319;BME280;46163;52.306;5.634;2023-06-14T09:41:35;101668.56;;;33.41;18.38
60319;BME280;46163;52.306;5.634;2023-06-14T09:44:01;101656.47;;;33.87;18.61
60319;BME280;46163;52.306;5.634;2023-06-14T09:46:28;101669.34;;;33.83;18.52
60319;BME280;46163;52.306;5.634;2023-06-14T09:48:57;101659.78;;;32.42;20.02
60319;BME280;46163;52.306;5.634;2023-06-14T09:51:23;101662.28;;;33.53;18.25
60319;BME280;46163;52.306;5.634;2023-06-14T09:53:50;101658.19;;;34.46;16.57
60319;BME280;46163;52.306;5.634;2023-06-14T09:56:23;101656.84;;;33.65;18.28
60319;BME280;46163;52.306;5.634;2023-06-14T09:58:54;101651.13;;;34.36;17.54
60319;BME280;46163;52.306;5.634;2023-06-14T10:01:21;101650.50;;;34.88;17.53
60319;BME280;46163;52.306;5.634;2023-06-14T10:03:50;101650.31;;;34.23;16.81
60319;BME280;46163;52.306;5.634;2023-06-14T10:06:20;101655.69;;;34.41;17.21
60319;BME280;46163;52.306;5.634;2023-06-14T10:08:52;101663.19;;;34.32;17.43
60319;BME280;46163;52.306;5.634;2023-06-14T10:11:17;101651.69;;;33.63;16.88
60319;BME280;46163;52.306;5.634;2023-06-14T10:13:45;101638.81;;;32.96;17.70
60319;BME280;46163;52.306;5.634;2023-06-14T10:16:19;101647.34;;;33.74;17.08
60319;BME280;46163;52.306;5.634;2023-06-14T10:18:53;101644.69;;;33.15;17.93
60319;BME280;46163;52.306;5.634;2023-06-14T10:21:49;101662.09;;;33.07;18.42
60319;BME280;46163;52.306;5.634;2023-06-14T10:24:19;101639.44;;;33.23;17.74
60319;BME280;46163;52.306;5.634;2023-06-14T10:26:56;101641.84;;;31.92;17.74
60319;BME280;46163;52.306;5.634;2023-06-14T10:29:22;101641.88;;;31.09;20.10
60319;BME280;46163;52.306;5.634;2023-06-14T10:31:50;101643.13;;;30.55;20.19
60319;BME280;46163;52.306;5.634;2023-06-14T10:34:25;101653.88;;;30.11;21.25
60319;BME280;46163;52.306;5.634;2023-06-14T10:37:17;101638.91;;;29.59;21.85
60319;BME280;46163;52.306;5.634;2023-06-14T10:39:44;101648.44;;;29.12;22.15
60319;BME280;46163;52.306;5.634;2023-06-14T10:42:17;101649.97;;;29.04;22.32
60319;BME280;46163;52.306;5.634;2023-06-14T10:44:49;101657.50;;;28.52;23.17
60319;BME280;46163;52.306;5.634;2023-06-14T10:47:31;101650.69;;;27.84;23.60
60319;BME280;46163;52.306;5.634;2023-06-14T10:52:38;101645.47;;;27.02;24.25
60319;BME280;46163;52.306;5.634;2023-06-14T10:55:08;101654.66;;;26.88;24.61
60319;BME280;46163;52.306;5.634;2023-06-14T10:57:40;101640.47;;;26.86;24.99
60319;BME280;46163;52.306;5.634;2023-06-14T11:00:09;101647.09;;;26.80;25.09
60319;BME280;46163;52.306;5.634;2023-06-14T11:05:57;101638.47;;;25.65;25.72
60319;BME280;46163;52.306;5.634;2023-06-14T11:11:17;101644.88;;;25.89;26.35
60319;BME280;46163;52.306;5.634;2023-06-14T11:13:45;101639.75;;;26.17;26.44
60319;BME280;46163;52.306;5.634;2023-06-14T11:16:16;101605.66;;;26.14;25.69
60319;BME280;46163;52.306;5.634;2023-06-14T11:18:42;101626.25;;;26.31;25.36
60319;BME280;46163;52.306;5.634;2023-06-14T11:21:09;101631.84;;;25.81;25.22
60319;BME280;46163;52.306;5.634;2023-06-14T11:23:35;101643.19;;;25.49;26.11
60319;BME280;46163;52.306;5.634;2023-06-14T11:26:01;101650.16;;;25.21;26.87
60319;BME280;46163;52.306;5.634;2023-06-14T11:28:40;101648.00;;;25.13;26.51
60319;BME280;46163;52.306;5.634;2023-06-14T11:31:07;101633.31;;;24.99;26.95
60319;BME280;46163;52.306;5.634;2023-06-14T11:33:33;101635.78;;;25.05;26.50
60319;BME280;46163;52.306;5.634;2023-06-14T11:36:02;101634.97;;;25.05;26.43
60319;BME280;46163;52.306;5.634;2023-06-14T11:38:28;101632.53;;;25.03;27.25
60319;BME280;46163;52.306;5.634;2023-06-14T11:40:53;101644.38;;;25.28;26.11
60319;BME280;46163;52.306;5.634;2023-06-14T11:43:24;101640.41;;;25.05;27.29
60319;BME280;46163;52.306;5.634;2023-06-14T11:45:50;101639.25;;;25.21;26.79
60319;BME280;46163;52.306;5.634;2023-06-14T11:48:16;101633.72;;;25.36;26.99
60319;BME280;46163;52.306;5.634;2023-06-14T11:50:42;101632.72;;;25.67;26.65
60319;BME280;46163;52.306;5.634;2023-06-14T11:53:08;101628.63;;;25.74;25.22
60319;BME280;46163;52.306;5.634;2023-06-14T11:55:39;101641.75;;;25.62;25.97
60319;BME280;46163;52.306;5.634;2023-06-14T11:58:06;101619.75;;;25.48;26.40
60319;BME280;46163;52.306;5.634;2023-06-14T12:00:32;101634.94;;;25.59;26.03
60319;BME280;46163;52.306;5.634;2023-06-14T12:02:58;101629.28;;;25.51;26.45
60319;BME280;46163;52.306;5.634;2023-06-14T12:05:25;101626.03;;;25.49;26.16
60319;BME280;46163;52.306;5.634;2023-06-14T12:07:58;101626.50;;;25.61;26.79
60319;BME280;46163;52.306;5.634;2023-06-14T12:10:25;101624.31;;;25.63;26.81
60319;BME280;46163;52.306;5.634;2023-06-14T12:12:56;101637.56;;;25.30;26.28
60319;BME280;46163;52.306;5.634;2023-06-14T12:15:22;101637.59;;;25.25;26.69
60319;BME280;46163;52.306;5.634;2023-06-14T12:17:47;101631.22;;;25.45;26.87
60319;BME280;46163;52.306;5.634;2023-06-14T12:20:14;101634.66;;;25.61;26.83
60319;BME280;46163;52.306;5.634;2023-06-14T12:22:57;101625.16;;;25.04;26.98
60319;BME280;46163;52.306;5.634;2023-06-14T12:25:29;101647.72;;;25.09;27.67
60319;BME280;46163;52.306;5.634;2023-06-14T12:28:00;101633.81;;;25.16;26.96
60319;BME280;46163;52.306;5.634;2023-06-14T12:30:28;101628.53;;;25.35;26.05
60319;BME280;46163;52.306;5.634;2023-06-14T12:32:54;101642.31;;;25.59;26.63
60319;BME280;46163;52.306;5.634;2023-06-14T12:35:19;101633.53;;;25.67;26.51
60319;BME280;46163;52.306;5.634;2023-06-14T12:37:45;101631.94;;;25.61;26.48
60319;BME280;46163;52.306;5.634;2023-06-14T12:40:12;101639.66;;;25.49;26.48
60319;BME280;46163;52.306;5.634;2023-06-14T12:42:37;101617.00;;;25.53;26.16
60319;BME280;46163;52.306;5.634;2023-06-14T12:45:03;101627.13;;;25.48;26.12
60319;BME280;46163;52.306;5.634;2023-06-14T12:47:29;101632.00;;;25.56;26.41
60319;BME280;46163;52.306;5.634;2023-06-14T12:49:54;101639.22;;;25.81;25.84
60319;BME280;46163;52.306;5.634;2023-06-14T12:52:20;101638.66;;;25.84;25.34
60319;BME280;46163;52.306;5.634;2023-06-14T12:54:46;101615.72;;;25.85;25.07
60319;BME280;46163;52.306;5.634;2023-06-14T12:57:11;101640.47;;;25.93;25.48
60319;BME280;46163;52.306;5.634;2023-06-14T12:59:37;101631.69;;;26.02;25.63
60319;BME280;46163;52.306;5.634;2023-06-14T13:02:19;101634.06;;;25.69;25.88
60319;BME280;46163;52.306;5.634;2023-06-14T13:04:47;101631.53;;;25.39;26.43
60319;BME280;46163;52.306;5.634;2023-06-14T13:07:13;101637.31;;;25.27;26.11